Time;durP1;ratioP1;P1;durP2;ratioP2;P2;SDS_P1;SDS_P2;PMS_P1;PMS_P2;Temp;Humidity;BMP_temperature;BMP_pressure;BME280_temperature;BME280_humidity;BME280_pressure;Samples;Min_cycle;Max_cycle;Signal;HPM_P1;HPM_P2
2024/01/04 00:00:34;;;;;;;;;;;;;;;-144.99;nan;52668.22;5077048;28;20008;-68
2024/01/04 00:03:02;;;;;;;;;;;;;;;-144.99;nan;52594.84;5086973;28;19928;-67
2024/01/04 00:05:28;;;;;;;;;;;;;;;-144.99;nan;52635.63;5084360;28;20108;-69
2024/01/04 00:07:55;;;;;;;;;;;;;;;-144.99;nan;52623.38;5086191;28;20011;-76
2024/01/04 00:10:21;;;;;;;;;;;;;;;-144.99;nan;52674.34;5088012;28;19999;-75
2024/01/04 00:12:48;;;;;;;;;;;;;;;-144.99;nan;52651.94;5095922;28;19928;-77
2024/01/04 00:15:15;;;;;;;;;;;;;;;-144.99;nan;52680.47;5097676;28;19967;-75
2024/01/04 00:17:42;;;;;;;;;;;;;;;-144.99;nan;52660.09;5068265;28;19995;-76
2024/01/04 00:20:11;;;;;;;;;;;;;;;-144.99;nan;52647.84;5082276;28;20007;-75
2024/01/04 00:22:37;;;;;;;;;;;;;;;-144.99;nan;52668.22;5086678;28;20012;-76
2024/01/04 00:25:04;;;;;;;;;;;;;;;-144.99;nan;52641.72;4735948;28;9999873;-73
2024/01/04 00:27:30;;;;;;;;;;;;;;;-144.99;nan;52637.66;5084033;28;21324;-73
2024/01/04 00:29:57;;;;;;;;;;;;;;;-144.99;nan;52658.03;5086449;28;20014;-73
2024/01/04 00:32:23;;;;;;;;;;;;;;;-144.99;nan;52603.00;5087334;28;20321;-73
2024/01/04 00:34:50;;;;;;;;;;;;;;;-144.99;nan;52605.03;5085294;28;19936;-74
2024/01/04 00:37:18;;;;;;;;;;;;;;;-144.99;nan;52647.84;5085808;28;19924;-73
2024/01/04 00:39:44;;;;;;;;;;;;;;;-144.99;nan;52645.81;5085963;28;19939;-69
2024/01/04 00:42:11;;;;;;;;;;;;;;;-144.99;nan;52664.16;5087327;28;20018;-67
2024/01/04 00:44:37;;;;;;;;;;;;;;;-144.99;nan;52651.94;5084036;28;19974;-68
2024/01/04 00:47:04;;;;;;;;;;;;;;;-144.99;nan;52660.09;5086955;28;20412;-67
2024/01/04 00:49:32;;;;;;;;;;;;;;;-144.99;nan;52643.78;5087764;28;20442;-69
2024/01/04 00:51:58;;;;;;;;;;;;;;;-144.99;nan;52629.50;5087856;28;20018;-71
2024/01/04 00:54:26;;;;;;;;;;;;;;;-144.99;nan;52643.78;5085418;28;19924;-71
2024/01/04 00:56:53;;;;;;;;;;;;;;;-144.99;nan;52639.69;5087027;28;20009;-68
2024/01/04 00:59:19;;;;;;;;;;;;;;;-144.99;nan;52664.16;5087677;28;20233;-70
2024/01/04 01:01:46;;;;;;;;;;;;;;;-144.99;nan;52647.84;5087803;28;20361;-67
2024/01/04 01:04:12;;;;;;;;;;;;;;;-144.99;nan;52656.00;5087423;28;20077;-68
2024/01/04 01:06:39;;;;;;;;;;;;;;;-144.99;nan;52623.38;5085769;28;20287;-68
2024/01/04 01:09:05;;;;;;;;;;;;;;;-144.99;nan;52649.88;5085792;28;20058;-67
2024/01/04 01:11:33;;;;;;;;;;;;;;;-144.99;nan;52651.94;5087438;28;19951;-68
2024/01/04 01:14:00;;;;;;;;;;;;;;;-144.99;nan;52668.22;5087713;28;20385;-68
2024/01/04 01:16:26;;;;;;;;;;;;;;;-144.99;nan;52647.84;5086743;28;19923;-68
2024/01/04 01:18:53;;;;;;;;;;;;;;;-144.99;nan;52627.47;5087145;28;19980;-68
2024/01/04 01:21:19;;;;;;;;;;;;;;;-144.99;nan;52625.44;5087447;28;19971;-68
2024/01/04 01:23:46;;;;;;;;;;;;;;;-144.99;nan;52647.84;5087489;28;19990;-67
2024/01/04 01:26:12;;;;;;;;;;;;;;;-144.99;nan;52623.38;5086151;28;19998;-68
2024/01/04 01:28:40;;;;;;;;;;;;;;;-144.99;nan;52684.53;5087078;28;20003;-68
2024/01/04 01:31:07;;;;;;;;;;;;;;;-144.99;nan;52613.19;5087272;28;19986;-68
2024/01/04 01:33:33;;;;;;;;;;;;;;;-144.99;nan;52649.88;5087389;28;19924;-70
2024/01/04 01:36:01;;;;;;;;;;;;;;;-144.99;nan;52637.66;5088085;28;19994;-69
2024/01/04 01:38:28;;;;;;;;;;;;;;;-144.99;nan;52637.66;5088063;28;19983;-73
2024/01/04 01:40:55;;;;;;;;;;;;;;;-144.99;nan;52676.38;5104632;28;19952;-74
2024/01/04 01:43:21;;;;;;;;;;;;;;;-144.99;nan;52676.38;5103695;28;19924;-77
2024/01/04 01:45:49;;;;;;;;;;;;;;;-144.99;nan;52694.72;5103480;28;20055;-77
2024/01/04 01:48:16;;;;;;;;;;;;;;;-144.99;nan;52643.78;5103507;28;19928;-76
2024/01/04 01:50:42;;;;;;;;;;;;;;;-144.99;nan;52668.22;5107485;28;20064;-76
2024/01/04 01:53:09;;;;;;;;;;;;;;;-144.99;nan;52653.97;5101232;28;19924;-76
2024/01/04 01:55:36;;;;;;;;;;;;;;;-144.99;nan;52611.16;5094368;28;19977;-76
2024/01/04 01:58:02;;;;;;;;;;;;;;;-144.99;nan;52623.38;5108072;28;19912;-76
2024/01/04 02:00:29;;;;;;;;;;;;;;;-144.99;nan;52651.94;5111882;28;19928;-74
2024/01/04 02:02:57;;;;;;;;;;;;;;;-144.99;nan;52664.16;5112566;28;19938;-74
2024/01/04 02:05:24;;;;;;;;;;;;;;;-144.99;nan;52631.53;5109149;28;19919;-75
2024/01/04 02:07:50;;;;;;;;;;;;;;;-144.99;nan;52615.25;5112781;28;19927;-74
2024/01/04 02:10:17;;;;;;;;;;;;;;;-144.99;nan;52651.94;5110426;28;19924;-73
2024/01/04 02:12:43;;;;;;;;;;;;;;;-144.99;nan;52664.16;5106955;28;19972;-73
2024/01/04 02:15:10;;;;;;;;;;;;;;;-144.99;nan;52643.78;5109415;28;19912;-73
2024/01/04 02:17:36;;;;;;;;;;;;;;;-144.99;nan;52635.63;5111093;28;19973;-70
2024/01/04 02:20:05;;;;;;;;;;;;;;;-144.99;nan;52656.00;5102345;28;19924;-70
2024/01/04 02:22:31;;;;;;;;;;;;;;;-144.99;nan;52656.00;5097469;28;19928;-70
2024/01/04 02:24:59;;;;;;;;;;;;;;;-144.99;nan;52651.94;5085347;28;19924;-69
2024/01/04 02:27:26;;;;;;;;;;;;;;;-144.99;nan;52619.31;5100789;28;19928;-69
2024/01/04 02:29:52;;;;;;;;;;;;;;;-144.99;nan;52688.63;5106738;28;19912;-75
2024/01/04 02:32:19;;;;;;;;;;;;;;;-144.99;nan;52664.16;5107552;28;19928;-68
2024/01/04 02:34:45;;;;;;;;;;;;;;;-144.99;nan;52625.44;5092580;28;19935;-68
2024/01/04 02:37:12;;;;;;;;;;;;;;;-144.99;nan;52639.69;5088815;28;19931;-69
2024/01/04 02:39:38;;;;;;;;;;;;;;;-144.99;nan;52651.94;5091631;28;20305;-69
2024/01/04 02:42:06;;;;;;;;;;;;;;;-144.99;nan;52664.16;5099306;28;19916;-75
2024/01/04 02:44:33;;;;;;;;;;;;;;;-144.99;nan;52647.84;5110741;28;19924;-63
2024/01/04 02:46:59;;;;;;;;;;;;;;;-144.99;nan;52643.78;5091384;28;19950;-64
2024/01/04 02:49:26;;;;;;;;;;;;;;;-144.99;nan;52647.84;5088553;28;19970;-64
2024/01/04 02:51:52;;;;;;;;;;;;;;;-144.99;nan;52692.69;5090999;28;19932;-63
2024/01/04 02:54:18;;;;;;;;;;;;;;;-144.99;nan;52645.81;5091233;28;20402;-64
2024/01/04 02:56:45;;;;;;;;;;;;;;;-144.99;nan;52688.63;5086346;28;20362;-65
2024/01/04 02:59:13;;;;;;;;;;;;;;;-144.99;nan;52680.47;5089137;28;19935;-65
2024/01/04 03:01:41;;;;;;;;;;;;;;;-144.99;nan;52647.84;5089961;28;20023;-65
2024/01/04 03:04:07;;;;;;;;;;;;;;;-144.99;nan;52647.84;5091017;28;19935;-65
2024/01/04 03:06:34;;;;;;;;;;;;;;;-144.99;nan;52668.22;5091633;28;20019;-65
2024/01/04 03:09:01;;;;;;;;;;;;;;;-144.99;nan;52656.00;5092078;28;20297;-65
2024/01/04 03:11:27;;;;;;;;;;;;;;;-144.99;nan;52656.00;5093371;28;20022;-64
2024/01/04 03:13:54;;;;;;;;;;;;;;;-144.99;nan;52635.63;5089261;28;19989;-64
2024/01/04 03:16:21;;;;;;;;;;;;;;;-144.99;nan;52656.00;5090334;28;19975;-64
2024/01/04 03:18:48;;;;;;;;;;;;;;;-144.99;nan;52660.09;5090565;28;19934;-66
2024/01/04 03:21:15;;;;;;;;;;;;;;;-144.99;nan;52709.00;5088561;28;19924;-71
2024/01/04 03:23:41;;;;;;;;;;;;;;;-144.99;nan;52623.38;5089671;28;20311;-71
2024/01/04 03:26:08;;;;;;;;;;;;;;;-144.99;nan;52664.16;5087023;28;19936;-69
2024/01/04 03:28:34;;;;;;;;;;;;;;;-144.99;nan;52662.13;5087876;28;20417;-70
2024/01/04 03:31:01;;;;;;;;;;;;;;;-144.99;nan;52688.63;5088326;28;19967;-69
2024/01/04 03:33:29;;;;;;;;;;;;;;;-144.99;nan;52647.84;5087783;28;20015;-70
2024/01/04 03:35:56;;;;;;;;;;;;;;;-144.99;nan;52664.16;5090332;28;20338;-70
2024/01/04 03:38:22;;;;;;;;;;;;;;;-144.99;nan;52633.59;5090402;28;20009;-70
2024/01/04 03:40:49;;;;;;;;;;;;;;;-144.99;nan;52653.97;5088937;28;19936;-69
2024/01/04 03:43:15;;;;;;;;;;;;;;;-144.99;nan;52643.78;5087873;28;20061;-66
2024/01/04 03:45:42;;;;;;;;;;;;;;;-144.99;nan;52692.69;5090144;28;20488;-66
2024/01/04 03:48:08;;;;;;;;;;;;;;;-144.99;nan;52674.34;5090051;28;20027;-67
2024/01/04 03:50:36;;;;;;;;;;;;;;;-144.99;nan;52660.09;5083324;28;19977;-66
2024/01/04 03:53:04;;;;;;;;;;;;;;;-144.99;nan;52639.69;5086785;28;19936;-67
2024/01/04 03:55:30;;;;;;;;;;;;;;;-144.99;nan;52664.16;5087571;28;19931;-68
2024/01/04 03:57:57;;;;;;;;;;;;;;;-144.99;nan;52660.09;5089012;28;19963;-67
2024/01/04 04:00:23;;;;;;;;;;;;;;;-144.99;nan;52662.13;5090287;28;20404;-67
2024/01/04 04:02:51;;;;;;;;;;;;;;;-144.99;nan;52684.53;5088856;28;19955;-64
2024/01/04 04:05:17;;;;;;;;;;;;;;;-144.99;nan;52696.78;5084691;28;19934;-64
2024/01/04 04:07:45;;;;;;;;;;;;;;;-144.99;nan;52664.16;5089314;28;20001;-64
2024/01/04 04:10:12;;;;;;;;;;;;;;;-144.99;nan;52651.94;5088911;28;19989;-65
2024/01/04 04:12:38;;;;;;;;;;;;;;;-144.99;nan;52643.78;5087899;28;19924;-66
2024/01/04 04:15:05;;;;;;;;;;;;;;;-144.99;nan;52668.22;5086744;28;19966;-64
2024/01/04 04:17:31;;;;;;;;;;;;;;;-144.99;nan;52664.16;5088730;28;20436;-63
2024/01/04 04:19:58;;;;;;;;;;;;;;;-144.99;nan;52713.09;5089400;28;20397;-63
2024/01/04 04:22:24;;;;;;;;;;;;;;;-144.99;nan;52676.38;5070628;28;19928;-63
2024/01/04 04:24:52;;;;;;;;;;;;;;;-144.99;nan;52672.31;5087668;28;19963;-63
2024/01/04 04:27:19;;;;;;;;;;;;;;;-144.99;nan;52647.84;5082835;28;19924;-74
2024/01/04 04:29:45;;;;;;;;;;;;;;;-144.99;nan;52676.38;5088637;28;19928;-66
2024/01/04 04:32:12;;;;;;;;;;;;;;;-144.99;nan;52676.38;5088736;28;19990;-67
2024/01/04 04:34:38;;;;;;;;;;;;;;;-144.99;nan;52692.69;5090268;28;20312;-67
2024/01/04 04:37:05;;;;;;;;;;;;;;;-144.99;nan;52664.16;5080224;28;20407;-68
2024/01/04 04:39:32;;;;;;;;;;;;;;;-144.99;nan;52680.47;5088808;28;19928;-69
2024/01/04 04:42:00;;;;;;;;;;;;;;;-144.99;nan;52666.19;5094438;28;20069;-70
2024/01/04 04:44:26;;;;;;;;;;;;;;;-144.99;nan;52680.47;5089021;28;19928;-71
2024/01/04 04:46:53;;;;;;;;;;;;;;;-144.99;nan;52674.34;5088227;28;20027;-71
2024/01/04 04:49:19;;;;;;;;;;;;;;;-144.99;nan;52662.13;5088420;28;19928;-70
2024/01/04 04:51:48;;;;;;;;;;;;;;;-144.99;nan;52700.84;5088102;28;20055;-70
2024/01/04 04:54:15;;;;;;;;;;;;;;;-144.99;nan;52692.69;5088133;28;19928;-70
2024/01/04 04:56:41;;;;;;;;;;;;;;;-144.99;nan;52709.00;5083574;28;20035;-72
2024/01/04 04:59:09;;;;;;;;;;;;;;;-144.99;nan;52660.09;5084870;28;20015;-69
2024/01/04 05:01:36;;;;;;;;;;;;;;;-144.99;nan;52680.47;5082799;28;19943;-73
2024/01/04 05:04:02;;;;;;;;;;;;;;;-144.99;nan;52662.13;5088744;28;20027;-70
2024/01/04 05:06:29;;;;;;;;;;;;;;;-144.99;nan;52664.16;5088505;28;19975;-71
2024/01/04 05:08:55;;;;;;;;;;;;;;;-144.99;nan;52680.47;5088478;28;20304;-71
2024/01/04 05:11:22;;;;;;;;;;;;;;;-144.99;nan;52692.69;5087200;28;20382;-71
2024/01/04 05:13:48;;;;;;;;;;;;;;;-144.99;nan;52649.88;5085282;28;20013;-71
2024/01/04 05:16:16;;;;;;;;;;;;;;;-144.99;nan;52680.47;5088391;28;19974;-71
2024/01/04 05:18:42;;;;;;;;;;;;;;;-144.99;nan;52696.78;5088924;28;20654;-71
2024/01/04 05:21:09;;;;;;;;;;;;;;;-144.99;nan;52613.19;5088766;28;20283;-71
2024/01/04 05:23:35;;;;;;;;;;;;;;;-144.99;nan;52658.03;5086265;28;19978;-71
2024/01/04 05:26:02;;;;;;;;;;;;;;;-144.99;nan;52656.00;5086711;28;19928;-71
2024/01/04 05:28:29;;;;;;;;;;;;;;;-144.99;nan;52664.16;5087136;28;19924;-71
2024/01/04 05:30:55;;;;;;;;;;;;;;;-144.99;nan;52704.94;5088608;28;19974;-71
2024/01/04 05:33:23;;;;;;;;;;;;;;;-144.99;nan;52643.78;5086468;28;19940;-75
2024/01/04 05:35:51;;;;;;;;;;;;;;;-144.99;nan;52702.88;5085713;28;20378;-75
2024/01/04 05:38:17;;;;;;;;;;;;;;;-144.99;nan;52647.84;5088679;28;19924;-74
2024/01/04 05:40:44;;;;;;;;;;;;;;;-144.99;nan;52662.13;5089828;28;19974;-75
2024/01/04 05:43:11;;;;;;;;;;;;;;;-144.99;nan;52664.16;5086873;28;19924;-73
2024/01/04 05:45:37;;;;;;;;;;;;;;;-144.99;nan;52688.63;5087750;28;19977;-73
2024/01/04 05:48:04;;;;;;;;;;;;;;;-144.99;nan;52668.22;5086545;28;19955;-71
2024/01/04 05:50:32;;;;;;;;;;;;;;;-144.99;nan;52637.66;5089807;28;19936;-72
2024/01/04 05:52:58;;;;;;;;;;;;;;;-144.99;nan;52709.00;5089659;28;19924;-72
2024/01/04 05:55:25;;;;;;;;;;;;;;;-144.99;nan;52664.16;5093062;28;20011;-73
2024/01/04 05:57:51;;;;;;;;;;;;;;;-144.99;nan;52713.09;5093172;28;19979;-73
2024/01/04 06:00:18;;;;;;;;;;;;;;;-144.99;nan;52709.00;5092750;28;19928;-73
2024/01/04 06:02:44;;;;;;;;;;;;;;;-144.99;nan;52704.94;5092910;28;20450;-74
2024/01/04 06:05:11;;;;;;;;;;;;;;;-144.99;nan;52678.44;5092562;28;19981;-74
2024/01/04 06:07:39;;;;;;;;;;;;;;;-144.99;nan;52672.31;5092258;28;19927;-74
2024/01/04 06:10:06;;;;;;;;;;;;;;;-144.99;nan;52680.47;5090485;28;19971;-74
2024/01/04 06:12:32;;;;;;;;;;;;;;;-144.99;nan;52684.53;5091684;28;19958;-73
2024/01/04 06:14:59;;;;;;;;;;;;;;;-144.99;nan;52647.84;5092673;28;19928;-74
2024/01/04 06:17:25;;;;;;;;;;;;;;;-144.99;nan;52676.38;5092226;28;19960;-75
2024/01/04 06:19:52;;;;;;;;;;;;;;;-144.99;nan;52668.22;5091145;28;19928;-75
2024/01/04 06:22:18;;;;;;;;;;;;;;;-144.99;nan;52684.53;5095628;28;20347;-74
2024/01/04 06:24:46;;;;;;;;;;;;;;;-144.99;nan;52656.00;5092047;28;19982;-74
2024/01/04 06:27:13;;;;;;;;;;;;;;;-144.99;nan;52694.72;5090882;28;20462;-74
2024/01/04 06:29:39;;;;;;;;;;;;;;;-144.99;nan;52674.34;5090978;28;20041;-74
2024/01/04 06:32:08;;;;;;;;;;;;;;;-144.99;nan;52696.78;5089450;28;20140;-74
2024/01/04 06:34:34;;;;;;;;;;;;;;;-144.99;nan;52676.38;5097405;28;19924;-74
2024/01/04 06:37:01;;;;;;;;;;;;;;;-144.99;nan;52696.78;5115136;28;19924;-74
2024/01/04 06:39:28;;;;;;;;;;;;;;;-144.99;nan;52647.84;5098749;28;19977;-74
2024/01/04 06:41:55;;;;;;;;;;;;;;;-144.99;nan;52704.94;5083971;28;19954;-74
2024/01/04 06:44:22;;;;;;;;;;;;;;;-144.99;nan;52664.16;5092876;28;20023;-74
2024/01/04 06:46:49;;;;;;;;;;;;;;;-144.99;nan;52700.84;5094208;28;19928;-74
2024/01/04 06:49:15;;;;;;;;;;;;;;;-144.99;nan;52717.16;5091540;28;19962;-75
2024/01/04 06:51:42;;;;;;;;;;;;;;;-144.99;nan;52676.38;5083020;28;19975;-74
2024/01/04 06:54:08;;;;;;;;;;;;;;;-144.99;nan;52672.31;5091195;28;20006;-74
2024/01/04 06:56:35;;;;;;;;;;;;;;;-144.99;nan;52684.53;5077870;28;20307;-75
2024/01/04 06:59:04;;;;;;;;;;;;;;;-144.99;nan;52704.94;5091369;28;19970;-74
2024/01/04 07:01:30;;;;;;;;;;;;;;;-144.99;nan;52696.78;5090333;28;20352;-75
2024/01/04 07:03:57;;;;;;;;;;;;;;;-144.99;nan;52721.22;5090228;28;20208;-75
2024/01/04 07:06:23;;;;;;;;;;;;;;;-144.99;nan;52688.63;5087181;28;20385;-73
2024/01/04 07:08:50;;;;;;;;;;;;;;;-144.99;nan;52668.22;5090745;28;20280;-73
2024/01/04 07:11:16;;;;;;;;;;;;;;;-144.99;nan;52680.47;5090988;28;19967;-73
2024/01/04 07:13:43;;;;;;;;;;;;;;;-144.99;nan;52639.69;5088546;28;19939;-74
2024/01/04 07:16:11;;;;;;;;;;;;;;;-144.99;nan;52660.09;5110405;28;19920;-75
2024/01/04 07:18:37;;;;;;;;;;;;;;;-144.99;nan;52645.81;5079548;28;19931;-74
2024/01/04 07:21:05;;;;;;;;;;;;;;;-144.99;nan;52684.53;5083767;28;19953;-75
2024/01/04 07:23:32;;;;;;;;;;;;;;;-144.99;nan;52688.63;5087466;28;19932;-75
2024/01/04 07:25:58;;;;;;;;;;;;;;;-144.99;nan;52688.63;5087699;28;20011;-74
2024/01/04 07:28:25;;;;;;;;;;;;;;;-144.99;nan;52676.38;5092964;28;20366;-75
2024/01/04 07:30:51;;;;;;;;;;;;;;;-144.99;nan;52704.94;5091113;28;19938;-75
2024/01/04 07:33:21;;;;;;;;;;;;;;;-144.99;nan;52680.47;5090261;28;19962;-75
2024/01/04 07:35:47;;;;;;;;;;;;;;;-144.99;nan;52696.78;5089926;28;19950;-75
2024/01/04 07:38:14;;;;;;;;;;;;;;;-144.99;nan;52668.22;5090693;28;20349;-75
2024/01/04 07:40:40;;;;;;;;;;;;;;;-144.99;nan;52696.78;5090437;28;20007;-75
2024/01/04 07:43:07;;;;;;;;;;;;;;;-144.99;nan;52676.38;5090878;28;19970;-75
2024/01/04 07:45:35;;;;;;;;;;;;;;;-144.99;nan;52696.78;5086530;28;19973;-75
2024/01/04 07:48:01;;;;;;;;;;;;;;;-144.99;nan;52672.31;5087760;28;19982;-75
2024/01/04 07:50:29;;;;;;;;;;;;;;;-144.99;nan;52668.22;5090958;28;19924;-74
2024/01/04 07:52:56;;;;;;;;;;;;;;;-144.99;nan;52676.38;5090676;28;19975;-75
2024/01/04 07:55:23;;;;;;;;;;;;;;;-144.99;nan;52709.00;5100265;28;19923;-75
2024/01/04 07:57:49;;;;;;;;;;;;;;;-144.99;nan;52729.38;5107885;28;19986;-74
2024/01/04 08:00:16;;;;;;;;;;;;;;;-144.99;nan;52684.53;5090764;28;19928;-73
2024/01/04 08:02:42;;;;;;;;;;;;;;;-144.99;nan;52684.53;5090746;28;20373;-73
2024/01/04 08:05:10;;;;;;;;;;;;;;;-144.99;nan;52702.88;5088113;28;20569;-73
2024/01/04 08:07:37;;;;;;;;;;;;;;;-144.99;nan;52672.31;5087760;28;19932;-73
2024/01/04 08:10:04;;;;;;;;;;;;;;;-144.99;nan;52696.78;5089797;28;19982;-74
2024/01/04 08:12:31;;;;;;;;;;;;;;;-144.99;nan;52656.00;5090285;28;20412;-74
2024/01/04 08:14:57;;;;;;;;;;;;;;;-144.99;nan;52680.47;5089990;28;19969;-74
2024/01/04 08:17:24;;;;;;;;;;;;;;;-144.99;nan;52656.00;5090468;28;20006;-74
2024/01/04 08:19:50;;;;;;;;;;;;;;;-144.99;nan;52692.69;5090853;28;20386;-74
2024/01/04 08:22:17;;;;;;;;;;;;;;;-144.99;nan;52656.00;5090492;28;19947;-74
2024/01/04 08:24:45;;;;;;;;;;;;;;;-144.99;nan;52696.78;5089896;28;19959;-73
2024/01/04 08:27:11;;;;;;;;;;;;;;;-144.99;nan;52645.81;5090266;28;19969;-74
2024/01/04 08:29:38;;;;;;;;;;;;;;;-144.99;nan;52676.38;5090449;28;19932;-74
2024/01/04 08:32:05;;;;;;;;;;;;;;;-144.99;nan;52664.16;5087390;28;19928;-74
2024/01/04 08:34:31;;;;;;;;;;;;;;;-144.99;nan;52664.16;5087125;28;20023;-74
2024/01/04 08:36:59;;;;;;;;;;;;;;;-144.99;nan;52668.22;5109954;28;19932;-74
2024/01/04 08:39:24;;;;;;;;;;;;;;;-144.99;nan;52664.16;5104790;28;20301;-74
2024/01/04 08:41:52;;;;;;;;;;;;;;;-144.99;nan;52717.16;5089096;28;19945;-74
2024/01/04 08:44:18;;;;;;;;;;;;;;;-144.99;nan;52668.22;5089892;28;19928;-74
2024/01/04 08:46:45;;;;;;;;;;;;;;;-144.99;nan;52721.22;5086464;28;19935;-74
2024/01/04 08:49:12;;;;;;;;;;;;;;;-144.99;nan;52711.03;5089896;28;19928;-74
2024/01/04 08:51:38;;;;;;;;;;;;;;;-144.99;nan;52717.16;5089891;28;19977;-74
2024/01/04 08:54:05;;;;;;;;;;;;;;;-144.99;nan;52692.69;5094216;28;19924;-74
2024/01/04 08:56:31;;;;;;;;;;;;;;;-144.99;nan;52729.38;5088480;28;19932;-74
2024/01/04 08:59:00;;;;;;;;;;;;;;;-144.99;nan;52676.38;5085347;28;20290;-73
2024/01/04 09:01:26;;;;;;;;;;;;;;;-144.99;nan;52688.63;5088189;28;19946;-74
2024/01/04 09:03:53;;;;;;;;;;;;;;;-144.99;nan;52725.31;5090265;28;19924;-74
2024/01/04 09:06:20;;;;;;;;;;;;;;;-144.99;nan;52698.81;5085053;28;20518;-73
2024/01/04 09:08:46;;;;;;;;;;;;;;;-144.99;nan;52684.53;5088372;28;19927;-73
2024/01/04 09:11:13;;;;;;;;;;;;;;;-144.99;nan;52692.69;5089914;28;20044;-73
2024/01/04 09:13:39;;;;;;;;;;;;;;;-144.99;nan;52684.53;5090341;28;19935;-73
2024/01/04 09:16:07;;;;;;;;;;;;;;;-144.99;nan;52688.63;5092886;28;19977;-74
2024/01/04 09:18:35;;;;;;;;;;;;;;;-144.99;nan;52668.22;5113446;28;19938;-74
2024/01/04 09:21:02;;;;;;;;;;;;;;;-144.99;nan;52668.22;5095301;28;19928;-73
2024/01/04 09:23:28;;;;;;;;;;;;;;;-144.99;nan;52676.38;5088139;28;20059;-75
2024/01/04 09:25:55;;;;;;;;;;;;;;;-144.99;nan;52696.78;5089170;28;20024;-74
2024/01/04 09:28:23;;;;;;;;;;;;;;;-144.99;nan;52668.22;5086572;28;20404;-74
2024/01/04 09:30:50;;;;;;;;;;;;;;;-144.99;nan;52704.94;5086807;28;19924;-73
2024/01/04 09:33:23;;;;;;;;;;;;;;;-144.99;nan;52680.47;5088207;28;19924;-73
2024/01/04 09:35:50;;;;;;;;;;;;;;;-144.99;nan;52696.78;5089030;28;19943;-73
2024/01/04 09:38:16;;;;;;;;;;;;;;;-144.99;nan;52676.38;5093075;28;19928;-73
2024/01/04 09:40:43;;;;;;;;;;;;;;;-144.99;nan;52741.63;5094806;28;20466;-72
2024/01/04 09:43:09;;;;;;;;;;;;;;;-144.99;nan;52680.47;5086176;28;19959;-72
2024/01/04 09:45:38;;;;;;;;;;;;;;;-144.99;nan;52680.47;5088153;28;20022;-72
2024/01/04 09:48:08;;;;;;;;;;;;;;;-144.99;nan;52692.69;5087472;28;19924;-73
2024/01/04 09:50:37;;;;;;;;;;;;;;;-144.99;nan;52649.88;5088671;28;19924;-73
2024/01/04 09:53:05;;;;;;;;;;;;;;;-144.99;nan;52692.69;5087672;28;19924;-73
2024/01/04 09:55:35;;;;;;;;;;;;;;;-144.99;nan;52647.84;5088801;28;19942;-73
2024/01/04 09:58:03;;;;;;;;;;;;;;;-144.99;nan;52688.63;5111518;28;19942;-73
2024/01/04 10:00:29;;;;;;;;;;;;;;;-144.99;nan;52641.72;5096344;28;19977;-73
2024/01/04 10:02:58;;;;;;;;;;;;;;;-144.99;nan;52668.22;5085631;28;20653;-72
2024/01/04 10:05:26;;;;;;;;;;;;;;;-144.99;nan;52745.69;5079946;28;19932;-73
2024/01/04 10:07:57;;;;;;;;;;;;;;;-144.99;nan;52717.16;5087958;28;20144;-73
2024/01/04 10:10:28;;;;;;;;;;;;;;;-144.99;nan;52696.78;5087627;28;19936;-73
2024/01/04 10:12:55;;;;;;;;;;;;;;;-144.99;nan;52709.00;5087457;28;19928;-72
2024/01/04 10:15:21;;;;;;;;;;;;;;;-144.99;nan;52660.09;5085917;28;19963;-72
2024/01/04 10:17:48;;;;;;;;;;;;;;;-144.99;nan;52649.88;5086977;28;20019;-72
2024/01/04 10:20:15;;;;;;;;;;;;;;;-144.99;nan;52668.22;5094545;28;19924;-73
2024/01/04 10:22:42;;;;;;;;;;;;;;;-144.99;nan;52704.94;5086378;28;19928;-73
2024/01/04 10:25:12;;;;;;;;;;;;;;;-144.99;nan;52692.69;5090889;28;20016;-73
2024/01/04 10:27:39;;;;;;;;;;;;;;;-144.99;nan;52698.81;5083861;28;20362;-73
2024/01/04 10:30:07;;;;;;;;;;;;;;;-144.99;nan;52696.78;5087711;28;20339;-72
2024/01/04 10:32:34;;;;;;;;;;;;;;;-144.99;nan;52668.22;5087869;28;19948;-73
2024/01/04 10:35:04;;;;;;;;;;;;;;;-144.99;nan;52651.94;5084247;28;19932;-73
2024/01/04 10:37:30;;;;;;;;;;;;;;;-144.99;nan;52668.22;5098037;28;19942;-73
2024/01/04 10:40:01;;;;;;;;;;;;;;;-144.99;nan;52709.00;5104357;28;19936;-71
2024/01/04 10:42:29;;;;;;;;;;;;;;;-144.99;nan;52656.00;5088052;28;20001;-71
2024/01/04 10:44:56;;;;;;;;;;;;;;;-144.99;nan;52660.09;5087322;28;20022;-71
2024/01/04 10:47:23;;;;;;;;;;;;;;;-144.99;nan;52664.16;5087886;28;20004;-71
2024/01/04 10:49:50;;;;;;;;;;;;;;;-144.99;nan;52698.81;5086749;28;20316;-71
2024/01/04 10:52:17;;;;;;;;;;;;;;;-144.99;nan;52713.09;5092024;28;20374;-71
2024/01/04 10:54:44;;;;;;;;;;;;;;;-144.99;nan;52700.84;5095037;28;20519;-71
2024/01/04 10:57:12;;;;;;;;;;;;;;;-144.99;nan;52680.47;5087124;28;19924;-71
2024/01/04 10:59:43;;;;;;;;;;;;;;;-144.99;nan;52660.09;5089690;28;19932;-72
2024/01/04 11:02:11;;;;;;;;;;;;;;;-144.99;nan;52668.22;5088805;28;19932;-72
2024/01/04 11:04:39;;;;;;;;;;;;;;;-144.99;nan;52643.78;5090639;28;19924;-72
2024/01/04 11:07:06;;;;;;;;;;;;;;;-144.99;nan;52688.63;5089783;28;19924;-71
2024/01/04 11:09:34;;;;;;;;;;;;;;;-144.99;nan;52647.84;5091364;28;19978;-72
2024/01/04 11:12:02;;;;;;;;;;;;;;;-144.99;nan;52684.53;5087018;28;20246;-72
2024/01/04 11:14:29;;;;;;;;;;;;;;;-144.99;nan;52696.78;5090035;28;19939;-72
2024/01/04 11:17:04;;;;;;;;;;;;;;;-144.99;nan;52651.94;5093581;28;19928;-72
2024/01/04 11:19:36;;;;;;;;;;;;;;;-144.99;nan;52651.94;5102454;28;19950;-72
2024/01/04 11:22:10;;;;;;;;;;;;;;;-144.99;nan;52682.50;5091086;28;19938;-71
2024/01/04 11:24:42;;;;;;;;;;;;;;;-144.99;nan;52700.84;5090798;28;20366;-72
2024/01/04 11:27:13;;;;;;;;;;;;;;;-144.99;nan;52711.03;5089471;28;19924;-72
2024/01/04 11:29:41;;;;;;;;;;;;;;;-144.99;nan;52690.66;5082908;28;19928;-72
2024/01/04 11:32:09;;;;;;;;;;;;;;;-144.99;nan;52676.38;5087615;28;20485;-72
2024/01/04 11:34:36;;;;;;;;;;;;;;;-144.99;nan;52692.69;5088571;28;19924;-72
2024/01/04 11:37:09;;;;;;;;;;;;;;;-144.99;nan;52692.69;5090978;28;19928;-72
2024/01/04 11:39:35;;;;;;;;;;;;;;;-144.99;nan;52660.09;5089789;28;20068;-72
2024/01/04 11:42:12;;;;;;;;;;;;;;;-144.99;nan;52700.84;5090592;28;20019;-72
2024/01/04 11:44:39;;;;;;;;;;;;;;;-144.99;nan;52688.63;5089591;28;19924;-72
2024/01/04 11:47:14;;;;;;;;;;;;;;;-144.99;nan;52717.16;5091687;28;19986;-72
2024/01/04 11:49:47;;;;;;;;;;;;;;;-144.99;nan;52692.69;5091420;28;19977;-72
2024/01/04 11:52:16;;;;;;;;;;;;;;;-144.99;nan;52668.22;5088809;28;20281;-73
2024/01/04 11:54:42;;;;;;;;;;;;;;;-144.99;nan;52696.78;5092749;28;20090;-73
2024/01/04 11:57:18;;;;;;;;;;;;;;;-144.99;nan;52692.69;5087203;28;19979;-73
2024/01/04 11:59:45;;;;;;;;;;;;;;;-144.99;nan;52656.00;5100964;28;19913;-74
2024/01/04 12:02:16;;;;;;;;;;;;;;;-144.99;nan;52664.16;5102498;28;19997;-72
2024/01/04 12:04:43;;;;;;;;;;;;;;;-144.99;nan;52676.38;5088714;28;19925;-72
2024/01/04 12:07:12;;;;;;;;;;;;;;;-144.99;nan;52725.31;5089468;28;19928;-69
2024/01/04 12:09:39;;;;;;;;;;;;;;;-144.99;nan;52676.38;5086944;28;19998;-74
2024/01/04 12:12:07;;;;;;;;;;;;;;;-144.99;nan;52680.47;5089442;28;19932;-75
2024/01/04 12:14:34;;;;;;;;;;;;;;;-144.99;nan;52700.84;5090126;28;19935;-74
2024/01/04 12:17:01;;;;;;;;;;;;;;;-144.99;nan;52668.22;5090238;28;19978;-74
2024/01/04 12:19:28;;;;;;;;;;;;;;;-144.99;nan;52676.38;5087136;28;19928;-73
2024/01/04 12:21:54;;;;;;;;;;;;;;;-144.99;nan;52694.72;5089711;28;19980;-72
2024/01/04 12:24:23;;;;;;;;;;;;;;;-144.99;nan;52692.69;5093268;28;19932;-72
2024/01/04 12:26:49;;;;;;;;;;;;;;;-144.99;nan;52700.84;5085562;28;20006;-72
2024/01/04 12:29:16;;;;;;;;;;;;;;;-144.99;nan;52688.63;5088560;28;19974;-72
2024/01/04 12:31:43;;;;;;;;;;;;;;;-144.99;nan;52676.38;5092115;28;19924;-72
2024/01/04 12:34:10;;;;;;;;;;;;;;;-144.99;nan;52680.47;5089009;28;19972;-72
2024/01/04 12:36:37;;;;;;;;;;;;;;;-144.99;nan;52668.22;5088269;28;19969;-72
2024/01/04 12:39:07;;;;;;;;;;;;;;;-144.99;nan;52684.53;5092661;28;19981;-72
2024/01/04 12:41:37;;;;;;;;;;;;;;;-144.99;nan;52684.53;5096363;28;19963;-71
2024/01/04 12:44:04;;;;;;;;;;;;;;;-144.99;nan;52664.16;5086839;28;20025;-72
2024/01/04 12:46:31;;;;;;;;;;;;;;;-144.99;nan;52664.16;5089260;28;19928;-72